Time;durP1;ratioP1;P1;durP2;ratioP2;P2;SDS_P1;SDS_P2;PMS_P1;PMS_P2;Temp;Humidity;BMP_temperature;BMP_pressure;BME280_temperature;BME280_humidity;BME280_pressure;Samples;Min_cycle;Max_cycle;Signal;HPM_P1;HPM_P2
2022/07/05 00:00:55;;;;;;;3.93;3.60;;;19.70;69.10;;;;;;5057556;28;20199;-74
2022/07/05 00:03:20;;;;;;;5.03;3.63;;;19.70;69.50;;;;;;5087343;28;20487;-75
2022/07/05 00:05:46;;;;;;;4.07;3.30;;;19.70;70.20;;;;;;5085073;28;20203;-73
2022/07/05 00:08:12;;;;;;;5.37;4.17;;;19.50;70.10;;;;;;5085557;28;20258;-74
2022/07/05 00:10:39;;;;;;;5.73;3.93;;;19.60;71.40;;;;;;5080627;28;20804;-73
2022/07/05 00:13:05;;;;;;;5.23;4.10;;;19.40;70.50;;;;;;5080189;28;20293;-73
2022/07/05 00:15:32;;;;;;;7.80;3.90;;;19.30;71.70;;;;;;5078427;28;20421;-73
2022/07/05 00:17:57;;;;;;;6.17;3.90;;;19.30;71.60;;;;;;5067858;28;20453;-73
2022/07/05 00:20:23;;;;;;;7.30;4.20;;;19.20;71.80;;;;;;5079036;28;20453;-73
2022/07/05 00:22:49;;;;;;;7.33;4.20;;;19.30;72.90;;;;;;5067174;28;20278;-73
2022/07/05 00:25:15;;;;;;;12.23;4.90;;;19.20;72.70;;;;;;5062343;28;20193;-72
2022/07/05 00:27:41;;;;;;;5.50;3.87;;;19.20;72.30;;;;;;5088220;28;20945;-74
2022/07/05 00:30:08;;;;;;;5.20;3.90;;;19.10;72.90;;;;;;5083356;28;20183;-73
2022/07/05 00:32:34;;;;;;;10.10;4.10;;;19.10;73.00;;;;;;5081859;28;20468;-74
2022/07/05 00:35:00;;;;;;;5.57;4.67;;;19.10;72.70;;;;;;5081209;28;20498;-73
2022/07/05 00:37:25;;;;;;;7.03;4.10;;;19.20;72.70;;;;;;5084537;28;20207;-72
2022/07/05 00:39:51;;;;;;;5.40;3.90;;;19.20;72.60;;;;;;5084958;28;20193;-72
2022/07/05 00:42:17;;;;;;;4.73;4.00;;;19.10;72.30;;;;;;5079042;28;20246;-72
2022/07/05 00:44:43;;;;;;;5.33;3.93;;;19.10;72.40;;;;;;5088934;28;20185;-71
2022/07/05 00:47:12;;;;;;;3.67;3.30;;;19.10;72.60;;;;;;5077935;28;20414;-74
2022/07/05 00:49:38;;;;;;;7.63;4.20;;;19.10;72.10;;;;;;5086228;28;20234;-74
2022/07/05 00:52:05;;;;;;;6.23;4.17;;;19.00;72.40;;;;;;5080093;28;20473;-75
2022/07/05 00:54:34;;;;;;;6.50;4.60;;;19.00;72.90;;;;;;5087231;28;20435;-75
2022/07/05 00:57:00;;;;;;;9.03;4.13;;;18.90;73.70;;;;;;5081488;28;20421;-75
2022/07/05 00:59:27;;;;;;;5.83;4.23;;;18.90;74.20;;;;;;5083754;28;20475;-73
2022/07/05 01:01:53;;;;;;;6.03;4.53;;;18.90;74.20;;;;;;5079405;28;20601;-73
2022/07/05 01:04:18;;;;;;;5.70;4.60;;;18.90;74.50;;;;;;5084462;28;20514;-73
2022/07/05 01:06:47;;;;;;;5.57;4.10;;;18.80;74.90;;;;;;5084591;28;20185;-74
2022/07/05 01:09:15;;;;;;;6.30;4.30;;;18.70;75.10;;;;;;5067781;28;20192;-74
2022/07/05 01:11:43;;;;;;;6.20;4.77;;;18.60;75.40;;;;;;5083617;28;20476;-74
2022/07/05 01:14:10;;;;;;;4.10;3.80;;;18.60;75.20;;;;;;5084118;28;20871;-72
2022/07/05 01:16:38;;;;;;;6.77;3.87;;;18.50;75.50;;;;;;5078471;28;20600;-72
2022/07/05 01:19:08;;;;;;;5.00;4.10;;;18.40;75.80;;;;;;5083432;28;20522;-75
2022/07/05 01:21:40;;;;;;;10.17;4.83;;;18.40;75.70;;;;;;5076868;28;20458;-73
2022/07/05 01:24:07;;;;;;;5.40;4.40;;;18.50;75.50;;;;;;5082864;28;20417;-74
2022/07/05 01:26:34;;;;;;;6.93;4.20;;;18.40;75.50;;;;;;5082125;28;20719;-73
2022/07/05 01:28:59;;;;;;;6.10;4.50;;;18.30;75.80;;;;;;5065163;28;20471;-74
2022/07/05 01:31:25;;;;;;;7.23;3.90;;;18.30;76.20;;;;;;5083122;28;20452;-74
2022/07/05 01:33:51;;;;;;;6.80;4.03;;;18.20;76.50;;;;;;5087314;28;20253;-75
2022/07/05 01:36:18;;;;;;;6.37;3.93;;;18.20;76.70;;;;;;5087683;28;20212;-74
2022/07/05 01:38:44;;;;;;;7.00;4.10;;;18.20;76.80;;;;;;5079758;28;20897;-73
2022/07/05 01:41:10;;;;;;;4.70;3.80;;;18.20;75.90;;;;;;5081684;28;20440;-73
2022/07/05 01:43:35;;;;;;;8.13;4.30;;;18.20;75.90;;;;;;5092404;28;20421;-74
2022/07/05 01:46:04;;;;;;;4.67;3.43;;;18.20;76.20;;;;;;5080229;28;20794;-75
2022/07/05 01:48:33;;;;;;;4.97;3.60;;;18.20;76.10;;;;;;5073616;28;20200;-74
2022/07/05 01:51:09;;;;;;;3.70;3.50;;;18.30;75.40;;;;;;5086160;28;21130;-73
2022/07/05 01:53:38;;;;;;;3.77;3.00;;;18.30;74.00;;;;;;5081704;28;20476;-73
2022/07/05 01:56:05;;;;;;;6.80;3.67;;;18.30;73.50;;;;;;5087885;28;20505;-74
2022/07/05 01:58:31;;;;;;;5.50;3.57;;;18.20;73.60;;;;;;5082772;28;20428;-73
2022/07/05 02:00:59;;;;;;;5.60;3.27;;;18.10;74.20;;;;;;5065910;28;20440;-74
2022/07/05 02:03:25;;;;;;;4.63;3.57;;;18.20;74.30;;;;;;5089254;28;20416;-73
2022/07/05 02:05:52;;;;;;;5.27;3.80;;;18.20;74.90;;;;;;5102389;28;20838;-73
2022/07/05 02:08:19;;;;;;;5.40;3.77;;;18.20;75.50;;;;;;5082033;28;20472;-74
2022/07/05 02:10:45;;;;;;;3.63;3.43;;;18.20;75.70;;;;;;5085173;28;20416;-73
2022/07/05 02:13:11;;;;;;;4.57;3.37;;;18.20;75.80;;;;;;5064869;28;20821;-73
2022/07/05 02:15:39;;;;;;;4.47;3.90;;;18.20;75.80;;;;;;5079470;28;20180;-74
2022/07/05 02:18:07;;;;;;;4.77;4.50;;;18.10;76.40;;;;;;5075409;28;20412;-73
2022/07/05 02:20:33;;;;;;;4.80;3.80;;;18.20;75.90;;;;;;5082225;28;20472;-74
2022/07/05 02:22:59;;;;;;;4.87;3.63;;;18.00;76.20;;;;;;5080418;28;20777;-73
2022/07/05 02:25:25;;;;;;;4.30;3.63;;;18.00;75.40;;;;;;5072992;28;20417;-73
2022/07/05 02:27:55;;;;;;;4.50;3.13;;;17.90;74.90;;;;;;5070005;28;20561;-75
2022/07/05 02:30:21;;;;;;;3.90;3.53;;;17.90;75.40;;;;;;5091138;28;20426;-75
2022/07/05 02:32:47;;;;;;;5.30;3.43;;;17.90;76.20;;;;;;5087437;28;20478;-74
2022/07/05 02:35:13;;;;;;;4.87;3.57;;;17.80;76.50;;;;;;5091407;28;20184;-74
2022/07/05 02:37:39;;;;;;;5.57;4.40;;;17.80;76.70;;;;;;5069913;28;20784;-74
2022/07/05 02:40:10;;;;;;;8.20;3.57;;;17.90;76.40;;;;;;5073356;28;20494;-75
2022/07/05 02:42:37;;;;;;;4.10;3.40;;;18.00;76.10;;;;;;5085719;28;21123;-73
2022/07/05 02:45:03;;;;;;;8.77;4.87;;;17.90;76.20;;;;;;5081963;28;20436;-74
2022/07/05 02:47:30;;;;;;;6.23;3.60;;;17.90;76.70;;;;;;5067821;28;20429;-75
2022/07/05 02:49:57;;;;;;;5.70;4.23;;;17.80;77.10;;;;;;5076503;28;20429;-74
2022/07/05 02:52:23;;;;;;;7.30;3.90;;;17.70;77.70;;;;;;5085649;28;20562;-75
2022/07/05 02:54:49;;;;;;;4.40;4.00;;;17.60;78.00;;;;;;5077257;28;20514;-74
2022/07/05 02:57:15;;;;;;;5.73;3.70;;;17.50;78.60;;;;;;5084216;28;20175;-74
2022/07/05 02:59:40;;;;;;;4.47;3.67;;;17.40;78.60;;;;;;5058935;28;20260;-76
2022/07/05 03:02:06;;;;;;;7.37;4.63;;;17.40;78.70;;;;;;5079980;28;20247;-74
2022/07/05 03:04:32;;;;;;;4.40;3.93;;;17.30;79.00;;;;;;5084917;28;20183;-75
2022/07/05 03:06:57;;;;;;;4.50;4.20;;;17.30;79.30;;;;;;5085733;28;20183;-73
2022/07/05 03:09:23;;;;;;;5.50;4.03;;;17.30;79.30;;;;;;5075856;28;20239;-74
2022/07/05 03:11:49;;;;;;;4.53;3.73;;;17.30;78.70;;;;;;5065013;28;20220;-74
2022/07/05 03:14:14;;;;;;;4.83;3.70;;;17.30;78.70;;;;;;5089856;28;20190;-74
2022/07/05 03:16:40;;;;;;;5.33;3.80;;;17.30;78.60;;;;;;5066236;28;20276;-75
2022/07/05 03:19:06;;;;;;;4.20;3.57;;;17.30;78.70;;;;;;5084463;28;20188;-74
2022/07/05 03:21:32;;;;;;;5.70;4.13;;;17.20;78.70;;;;;;5077049;28;20208;-74
2022/07/05 03:23:57;;;;;;;7.43;4.10;;;17.20;79.20;;;;;;5082460;28;20190;-75
2022/07/05 03:26:23;;;;;;;5.17;3.90;;;17.10;79.90;;;;;;5083915;28;20183;-75
2022/07/05 03:28:49;;;;;;;5.27;4.13;;;17.10;80.00;;;;;;5073988;28;20186;-74
2022/07/05 03:31:15;;;;;;;5.10;3.97;;;17.10;80.20;;;;;;5083958;28;20199;-74
2022/07/05 03:33:40;;;;;;;5.67;4.20;;;17.10;80.30;;;;;;5082535;28;20611;-74
2022/07/05 03:36:06;;;;;;;7.07;4.50;;;17.00;80.20;;;;;;5078976;28;20614;-73
2022/07/05 03:38:33;;;;;;;6.90;3.80;;;16.80;80.20;;;;;;5080995;28;20177;-75
2022/07/05 03:40:58;;;;;;;5.47;4.07;;;16.80;80.80;;;;;;5079081;28;20480;-75
2022/07/05 03:43:24;;;;;;;6.40;3.60;;;16.80;80.60;;;;;;5085716;28;20456;-74
2022/07/05 03:45:50;;;;;;;5.77;4.00;;;16.80;80.60;;;;;;5082789;28;20210;-75
2022/07/05 03:48:16;;;;;;;4.83;3.87;;;16.80;80.60;;;;;;5085849;28;20557;-75
2022/07/05 03:50:41;;;;;;;4.13;3.80;;;16.80;80.60;;;;;;5078688;28;20182;-74
2022/07/05 03:53:07;;;;;;;7.23;4.37;;;16.80;80.60;;;;;;5083640;28;20597;-75
2022/07/05 03:55:33;;;;;;;7.80;4.30;;;16.80;80.60;;;;;;5078675;28;20183;-75
2022/07/05 03:57:58;;;;;;;6.60;4.60;;;16.70;80.90;;;;;;5082738;28;20178;-74
2022/07/05 04:00:24;;;;;;;5.10;4.20;;;16.60;81.20;;;;;;5083207;28;20184;-73
2022/07/05 04:02:50;;;;;;;5.80;4.10;;;16.60;81.20;;;;;;5082740;28;20228;-74
2022/07/05 04:05:15;;;;;;;5.87;4.37;;;16.60;81.40;;;;;;5081408;28;20184;-74
2022/07/05 04:07:52;;;;;;;5.43;3.90;;;16.60;81.40;;;;;;5088706;28;20183;-75
2022/07/05 04:10:18;;;;;;;7.30;4.20;;;16.70;81.10;;;;;;5088578;28;20186;-74
2022/07/05 04:12:44;;;;;;;5.40;3.90;;;16.70;80.90;;;;;;5088483;28;20505;-76
2022/07/05 04:15:11;;;;;;;5.03;3.93;;;16.70;80.90;;;;;;5081145;28;20425;-74
2022/07/05 04:17:50;;;;;;;6.47;4.27;;;16.70;81.20;;;;;;5089955;28;20982;-74
2022/07/05 04:20:16;;;;;;;5.57;4.37;;;16.70;81.20;;;;;;5074558;28;20515;-74
2022/07/05 04:22:42;;;;;;;7.50;4.30;;;16.80;81.20;;;;;;5083559;28;20547;-75
2022/07/05 04:25:17;;;;;;;5.20;4.20;;;16.90;80.30;;;;;;5079340;28;20414;-73
2022/07/05 04:27:45;;;;;;;4.90;4.20;;;16.90;80.00;;;;;;5083003;28;20455;-74
2022/07/05 04:30:11;;;;;;;5.80;4.30;;;16.90;79.70;;;;;;5084952;28;20424;-75
2022/07/05 04:32:36;;;;;;;6.27;4.40;;;16.80;80.20;;;;;;5081793;28;20540;-74
2022/07/05 04:35:02;;;;;;;4.97;4.10;;;16.80;80.30;;;;;;5088634;28;20440;-74
2022/07/05 04:37:28;;;;;;;5.83;4.37;;;16.90;80.50;;;;;;5080991;28;20186;-74
2022/07/05 04:39:54;;;;;;;4.50;3.60;;;17.00;80.30;;;;;;5085236;28;21120;-73
2022/07/05 04:42:20;;;;;;;7.63;4.07;;;17.00;80.30;;;;;;5062519;28;20844;-74
2022/07/05 04:44:45;;;;;;;6.90;4.40;;;17.00;80.60;;;;;;5084971;28;20206;-74
2022/07/05 04:47:11;;;;;;;4.60;4.20;;;17.00;80.60;;;;;;5095809;28;20184;-73
2022/07/05 04:49:37;;;;;;;4.83;4.27;;;17.20;80.00;;;;;;5093106;28;20191;-72
2022/07/05 04:52:03;;;;;;;6.23;4.20;;;17.20;80.00;;;;;;5076849;28;20246;-75
2022/07/05 04:54:28;;;;;;;5.60;4.10;;;17.20;80.00;;;;;;5083131;28;20581;-73
2022/07/05 04:56:54;;;;;;;6.60;4.30;;;17.30;79.00;;;;;;5080217;28;20930;-75
2022/07/05 04:59:20;;;;;;;6.43;4.23;;;17.40;77.70;;;;;;5085674;28;20656;-73
2022/07/05 05:01:45;;;;;;;11.80;5.50;;;17.60;77.40;;;;;;5075040;28;20214;-74
2022/07/05 05:04:11;;;;;;;7.43;4.30;;;17.60;77.40;;;;;;5081007;28;20177;-73
2022/07/05 05:06:37;;;;;;;4.13;3.90;;;17.60;77.70;;;;;;5077827;28;20744;-73
2022/07/05 05:09:03;;;;;;;5.13;4.30;;;17.60;77.60;;;;;;5086138;28;20180;-74
2022/07/05 05:11:29;;;;;;;5.23;3.70;;;17.60;77.60;;;;;;5080072;28;20203;-72
2022/07/05 05:13:54;;;;;;;5.63;3.87;;;17.70;76.70;;;;;;5092697;28;20427;-74
2022/07/05 05:16:20;;;;;;;5.90;4.27;;;17.80;76.40;;;;;;5086406;28;20211;-74
2022/07/05 05:18:46;;;;;;;5.90;3.70;;;17.90;75.50;;;;;;5067877;28;20221;-74
2022/07/05 05:21:12;;;;;;;5.40;4.00;;;17.90;75.90;;;;;;5081624;28;20261;-76
2022/07/05 05:23:37;;;;;;;5.30;3.70;;;18.00;74.90;;;;;;5061798;28;20180;-75
2022/07/05 05:26:03;;;;;;;4.67;3.30;;;18.10;73.30;;;;;;5066603;28;20435;-74
2022/07/05 05:28:29;;;;;;;4.27;3.00;;;18.00;71.60;;;;;;5088758;28;20192;-75
2022/07/05 05:30:54;;;;;;;5.03;2.80;;;18.10;71.60;;;;;;5084048;28;20658;-74
2022/07/05 05:33:20;;;;;;;5.70;3.63;;;18.30;70.80;;;;;;5082932;28;20235;-74
2022/07/05 05:35:46;;;;;;;5.83;3.20;;;18.30;70.50;;;;;;5086357;28;20226;-74
2022/07/05 05:38:12;;;;;;;5.73;3.30;;;18.30;70.80;;;;;;5090756;28;20216;-75
2022/07/05 05:40:38;;;;;;;5.80;3.20;;;18.40;70.50;;;;;;5083472;28;20181;-74
2022/07/05 05:43:04;;;;;;;6.43;3.87;;;18.50;70.40;;;;;;5081377;28;20275;-74
2022/07/05 05:45:30;;;;;;;3.20;2.83;;;18.60;69.70;;;;;;5069328;28;20430;-75
2022/07/05 05:47:59;;;;;;;3.17;2.80;;;18.70;70.20;;;;;;5086228;28;20432;-74
2022/07/05 05:50:30;;;;;;;5.40;3.63;;;18.70;70.20;;;;;;5069697;28;20495;-74
2022/07/05 05:52:56;;;;;;;6.60;3.40;;;18.80;69.90;;;;;;5080091;28;20471;-74
2022/07/05 05:55:24;;;;;;;5.27;3.50;;;18.80;69.50;;;;;;5083612;28;20420;-74
2022/07/05 05:57:50;;;;;;;4.70;3.43;;;18.90;69.70;;;;;;5087220;28;20432;-73
2022/07/05 06:00:16;;;;;;;3.03;2.90;;;18.90;69.40;;;;;;5070958;28;20425;-74
2022/07/05 06:02:44;;;;;;;4.70;3.00;;;19.00;68.30;;;;;;5086793;28;20708;-74
2022/07/05 06:05:10;;;;;;;3.80;3.03;;;19.10;67.50;;;;;;5084327;28;20460;-75
2022/07/05 06:07:52;;;;;;;5.50;3.03;;;19.20;67.30;;;;;;5081122;28;20779;-74
2022/07/05 06:10:23;;;;;;;4.63;2.83;;;19.30;67.20;;;;;;5085785;28;20438;-73
2022/07/05 06:12:51;;;;;;;8.17;3.10;;;19.40;66.70;;;;;;5085721;28;20477;-74
2022/07/05 06:15:18;;;;;;;10.37;3.20;;;19.40;66.00;;;;;;5086573;28;20485;-74
2022/07/05 06:17:44;;;;;;;6.33;3.10;;;19.40;66.10;;;;;;5089001;28;20417;-74
2022/07/05 06:20:13;;;;;;;5.37;2.83;;;19.50;65.60;;;;;;5088164;28;20426;-74
2022/07/05 06:22:39;;;;;;;5.93;3.43;;;19.60;65.00;;;;;;5085854;28;20301;-74
2022/07/05 06:25:06;;;;;;;4.70;2.87;;;19.70;63.70;;;;;;5083087;28;20425;-75
2022/07/05 06:27:31;;;;;;;4.13;2.60;;;19.70;62.60;;;;;;5085226;28;20424;-74
2022/07/05 06:29:57;;;;;;;2.47;2.27;;;19.80;63.10;;;;;;5090257;28;20417;-74
2022/07/05 06:32:24;;;;;;;4.57;2.73;;;19.90;61.90;;;;;;5090750;28;20717;-73
2022/07/05 06:34:50;;;;;;;3.80;2.70;;;20.00;61.20;;;;;;5089582;28;20425;-74
2022/07/05 06:37:15;;;;;;;3.50;2.47;;;20.10;61.20;;;;;;5076209;28;20477;-75
2022/07/05 06:39:41;;;;;;;2.80;2.53;;;20.20;61.00;;;;;;5085807;28;20230;-75
2022/07/05 06:42:07;;;;;;;5.00;2.63;;;20.30;60.70;;;;;;5085491;28;20201;-74
2022/07/05 06:44:33;;;;;;;4.73;2.60;;;20.30;61.20;;;;;;5090910;28;20185;-75
2022/07/05 06:46:59;;;;;;;3.90;3.10;;;20.30;61.70;;;;;;5095602;28;20180;-74
2022/07/05 06:49:24;;;;;;;6.63;4.10;;;20.30;62.00;;;;;;5076033;28;20797;-74
2022/07/05 06:51:50;;;;;;;8.23;3.60;;;20.40;61.60;;;;;;5084374;28;20319;-73
2022/07/05 06:54:16;;;;;;;5.23;2.63;;;20.40;61.50;;;;;;5088624;28;20182;-74
2022/07/05 06:56:41;;;;;;;7.50;2.73;;;20.50;61.20;;;;;;5077056;28;20176;-74
2022/07/05 06:59:07;;;;;;;4.80;2.87;;;20.60;61.00;;;;;;5083722;28;20181;-73
2022/07/05 07:01:33;;;;;;;6.63;2.83;;;20.70;60.60;;;;;;5087624;28;20690;-74
2022/07/05 07:03:59;;;;;;;5.10;2.90;;;20.70;60.70;;;;;;5090960;28;20557;-74
2022/07/05 07:06:24;;;;;;;8.40;2.93;;;20.70;60.60;;;;;;5099795;28;20184;-74
2022/07/05 07:11:35;;;;;;;4.67;2.67;;;20.90;59.90;;;;;;5078009;28;20293;-76
2022/07/05 07:14:01;;;;;;;10.53;2.93;;;21.10;59.30;;;;;;5095798;28;20875;-75
2022/07/05 07:16:27;;;;;;;4.00;3.00;;;21.10;58.90;;;;;;5094580;28;20204;-73
2022/07/05 07:18:53;;;;;;;4.93;2.77;;;21.10;58.50;;;;;;5092512;28;20477;-75
2022/07/05 07:21:19;;;;;;;7.50;3.20;;;21.10;58.20;;;;;;5086243;28;20250;-75
2022/07/05 07:23:44;;;;;;;4.30;2.97;;;21.10;58.50;;;;;;5086684;28;20416;-74
2022/07/05 07:26:10;;;;;;;8.43;2.80;;;21.10;58.90;;;;;;5073225;28;20259;-75
2022/07/05 07:28:36;;;;;;;4.70;2.60;;;21.20;58.70;;;;;;5079231;28;20186;-75
2022/07/05 07:31:02;;;;;;;7.60;2.47;;;21.20;58.40;;;;;;5092985;28;20896;-75
2022/07/05 07:33:27;;;;;;;7.70;2.87;;;21.30;58.50;;;;;;5086922;28;20268;-73
2022/07/05 07:35:53;;;;;;;6.23;2.53;;;21.30;58.00;;;;;;5090196;28;20177;-74
2022/07/05 07:38:19;;;;;;;4.97;2.80;;;21.30;57.00;;;;;;5085749;28;20177;-75
2022/07/05 07:40:45;;;;;;;4.97;2.73;;;21.40;57.80;;;;;;5070628;28;20184;-72
2022/07/05 07:43:10;;;;;;;6.03;2.93;;;21.40;56.90;;;;;;5085193;28;20209;-74
2022/07/05 07:45:36;;;;;;;4.97;2.60;;;21.50;57.40;;;;;;5088903;28;20758;-74
2022/07/05 07:48:02;;;;;;;5.90;2.70;;;21.70;57.00;;;;;;5080680;28;20192;-73
2022/07/05 07:50:28;;;;;;;6.17;3.53;;;21.70;57.30;;;;;;5089926;28;20210;-75
2022/07/05 07:52:53;;;;;;;6.30;2.80;;;21.80;57.60;;;;;;5063772;28;20280;-74
2022/07/05 07:55:19;;;;;;;7.23;3.20;;;21.80;56.90;;;;;;5085538;28;20197;-74
2022/07/05 07:57:45;;;;;;;6.10;2.70;;;21.80;57.30;;;;;;5070623;28;21009;-73
2022/07/05 08:00:11;;;;;;;5.87;2.50;;;21.90;57.00;;;;;;5083109;28;20184;-75
2022/07/05 08:02:37;;;;;;;7.90;2.40;;;22.00;56.10;;;;;;5078175;28;20745;-74
2022/07/05 08:05:04;;;;;;;3.17;2.33;;;22.00;55.70;;;;;;5082382;28;20430;-73
2022/07/05 08:07:30;;;;;;;3.33;2.80;;;22.10;55.30;;;;;;5084254;28;20190;-75
2022/07/05 08:09:56;;;;;;;4.00;2.40;;;22.20;55.00;;;;;;5084695;28;20438;-74
2022/07/05 08:12:22;;;;;;;3.90;2.00;;;22.30;54.00;;;;;;5072889;28;20286;-73
2022/07/05 08:14:47;;;;;;;5.60;2.80;;;22.40;54.20;;;;;;5062055;28;20504;-74
2022/07/05 08:17:13;;;;;;;6.83;3.13;;;22.40;54.50;;;;;;5076227;28;20183;-74
2022/07/05 08:22:24;;;;;;;5.43;2.93;;;22.40;55.40;;;;;;5086359;28;20342;-75
2022/07/05 08:24:50;;;;;;;6.73;2.60;;;22.50;55.60;;;;;;5080599;28;20503;-76
2022/07/05 08:27:16;;;;;;;7.33;3.00;;;22.60;55.70;;;;;;5077130;28;20423;-74
2022/07/05 08:29:42;;;;;;;5.63;2.87;;;22.60;55.30;;;;;;5063799;28;20434;-74
2022/07/05 08:32:08;;;;;;;3.80;2.37;;;22.60;55.40;;;;;;5087996;28;20475;-74
2022/07/05 08:34:34;;;;;;;3.50;2.30;;;22.70;54.80;;;;;;5088263;28;20445;-74
2022/07/05 08:37:00;;;;;;;3.83;2.60;;;22.80;54.50;;;;;;5086035;28;20920;-74
2022/07/05 08:39:27;;;;;;;7.50;2.73;;;22.80;53.00;;;;;;5088500;28;20234;-73
2022/07/05 08:41:54;;;;;;;5.57;2.60;;;22.80;53.00;;;;;;5088916;28;20192;-75
2022/07/05 08:44:22;;;;;;;4.70;2.23;;;22.80;52.40;;;;;;5088016;28;20923;-74
2022/07/05 08:46:50;;;;;;;2.30;2.10;;;22.90;52.20;;;;;;5091543;28;20424;-73
2022/07/05 08:49:24;;;;;;;2.40;2.27;;;22.90;52.80;;;;;;5093720;28;20511;-74
2022/07/05 08:51:50;;;;;;;3.13;1.97;;;23.00;52.90;;;;;;5092888;28;20475;-75
2022/07/05 08:54:17;;;;;;;4.17;2.43;;;22.90;54.00;;;;;;5083739;28;20439;-75
2022/07/05 08:56:45;;;;;;;3.30;2.37;;;23.00;54.00;;;;;;5088856;28;20446;-74
2022/07/05 08:59:12;;;;;;;4.53;2.40;;;23.00;53.60;;;;;;5087442;28;21214;-74
2022/07/05 09:01:39;;;;;;;4.53;2.53;;;23.00;52.90;;;;;;5094073;28;20561;-74
2022/07/05 09:04:07;;;;;;;4.37;2.67;;;23.10;52.40;;;;;;5076383;28;20422;-75
2022/07/05 09:06:38;;;;;;;5.80;2.50;;;23.10;52.40;;;;;;5081622;28;20446;-74
2022/07/05 09:09:04;;;;;;;5.13;2.00;;;23.20;51.30;;;;;;5083244;28;20416;-74
2022/07/05 09:11:41;;;;;;;5.57;2.53;;;23.30;51.20;;;;;;5086117;28;20451;-75
2022/07/05 09:14:25;;;;;;;6.93;2.70;;;23.40;50.60;;;;;;5087789;28;20420;-73
2022/07/05 09:16:51;;;;;;;4.33;2.40;;;23.40;50.70;;;;;;5094633;28;20419;-75
2022/07/05 09:19:17;;;;;;;9.57;3.10;;;23.50;51.30;;;;;;5082466;28;20417;-75
2022/07/05 09:21:43;;;;;;;3.93;2.17;;;23.60;50.70;;;;;;5086017;28;20462;-74
2022/07/05 09:24:11;;;;;;;3.30;2.30;;;23.70;50.20;;;;;;5089853;28;20514;-75
2022/07/05 09:26:39;;;;;;;2.83;2.20;;;23.70;49.90;;;;;;5078930;28;20183;-74
2022/07/05 09:29:10;;;;;;;3.90;2.57;;;23.90;50.60;;;;;;5079945;28;20423;-74
2022/07/05 09:31:41;;;;;;;5.20;2.33;;;23.80;50.10;;;;;;5064996;28;20535;-74
2022/07/05 09:34:34;;;;;;;3.60;2.03;;;23.80;50.20;;;;;;5087415;28;21060;-74
2022/07/05 09:37:03;;;;;;;5.40;2.17;;;23.80;49.00;;;;;;5085645;28;20418;-74
2022/07/05 09:39:29;;;;;;;2.43;2.13;;;23.90;48.30;;;;;;5086778;28;20985;-75
2022/07/05 09:42:26;;;;;;;4.93;2.50;;;23.90;48.60;;;;;;5082774;28;20535;-74
2022/07/05 09:44:53;;;;;;;5.07;2.50;;;24.00;49.40;;;;;;5085279;28;20194;-74
2022/07/05 09:47:21;;;;;;;4.53;2.70;;;24.00;48.90;;;;;;5079828;28;20416;-75
2022/07/05 09:49:50;;;;;;;5.77;2.10;;;24.10;48.70;;;;;;5092283;28;20444;-75
2022/07/05 09:52:35;;;;;;;4.80;1.80;;;24.10;46.50;;;;;;5090869;28;20472;-75
2022/07/05 09:55:13;;;;;;;7.00;1.87;;;24.00;46.50;;;;;;5075505;28;20420;-75
2022/07/05 09:57:40;;;;;;;4.90;3.13;;;24.20;46.90;;;;;;5086670;28;20468;-74
2022/07/05 10:00:12;;;;;;;3.47;1.93;;;24.30;45.80;;;;;;5073400;28;20467;-74
2022/07/05 10:02:39;;;;;;;3.10;2.27;;;24.30;45.80;;;;;;5091818;28;20855;-76
2022/07/05 10:05:16;;;;;;;2.97;1.90;;;24.40;44.70;;;;;;5091953;28;20888;-75
2022/07/05 10:08:01;;;;;;;3.73;2.10;;;24.40;42.00;;;;;;5092780;28;20501;-75
2022/07/05 10:10:29;;;;;;;3.40;2.33;;;24.50;43.70;;;;;;5078128;28;20497;-73
2022/07/05 10:13:06;;;;;;;6.67;2.13;;;24.60;43.00;;;;;;5093966;28;20476;-73
2022/07/05 10:15:34;;;;;;;4.70;2.30;;;24.40;43.90;;;;;;5087624;28;20422;-76
2022/07/05 10:18:20;;;;;;;15.30;2.57;;;24.60;44.60;;;;;;5087941;28;20423;-75
2022/07/05 10:20:46;;;;;;;2.13;1.90;;;24.90;43.50;;;;;;5087483;28;20427;-73
2022/07/05 10:23:19;;;;;;;6.07;2.10;;;25.20;40.70;;;;;;5090857;28;20482;-73
2022/07/05 10:25:49;;;;;;;3.80;2.00;;;25.00;41.60;;;;;;5090593;28;20426;-75
2022/07/05 10:28:16;;;;;;;2.40;2.00;;;25.00;42.00;;;;;;5082998;28;20838;-74
2022/07/05 10:30:45;;;;;;;3.30;2.10;;;25.30;42.00;;;;;;5090585;28;20419;-73
2022/07/05 10:33:14;;;;;;;5.63;2.20;;;25.50;41.40;;;;;;5089799;28;20471;-75
2022/07/05 10:35:43;;;;;;;4.33;2.00;;;25.80;39.60;;;;;;5086070;28;20412;-72
2022/07/05 10:38:10;;;;;;;4.03;2.53;;;26.00;38.80;;;;;;5085329;28;20423;-74
2022/07/05 10:40:36;;;;;;;6.00;2.10;;;26.00;37.90;;;;;;5079090;28;20420;-73
2022/07/05 10:43:03;;;;;;;2.93;1.83;;;25.80;38.20;;;;;;5081511;28;20530;-73
2022/07/05 10:45:33;;;;;;;4.70;1.90;;;25.60;38.00;;;;;;5081196;28;20451;-73
2022/07/05 10:48:25;;;;;;;3.87;1.77;;;25.50;39.90;;;;;;5075396;28;20804;-73
2022/07/05 10:51:16;;;;;;;3.70;2.03;;;25.00;41.80;;;;;;5082453;28;20510;-73
2022/07/05 10:53:42;;;;;;;3.60;2.20;;;25.00;41.60;;;;;;5077898;28;20463;-73
2022/07/05 10:56:07;;;;;;;6.40;2.23;;;25.20;40.40;;;;;;5077417;28;20972;-73
2022/07/05 10:58:41;;;;;;;5.63;2.30;;;25.50;40.30;;;;;;5081941;28;20577;-74
2022/07/05 11:01:15;;;;;;;4.50;2.47;;;25.40;40.80;;;;;;5084535;28;20221;-74
2022/07/05 11:03:42;;;;;;;2.60;2.00;;;25.50;40.20;;;;;;5082706;28;20475;-74
2022/07/05 11:06:18;;;;;;;4.87;2.00;;;25.70;40.00;;;;;;5087726;28;20431;-74
2022/07/05 11:08:59;;;;;;;2.73;2.20;;;25.80;39.60;;;;;;5085386;28;20408;-74
2022/07/05 11:11:31;;;;;;;2.97;2.20;;;26.20;38.70;;;;;;5075841;28;20467;-74
2022/07/05 11:13:58;;;;;;;4.90;2.10;;;26.20;37.90;;;;;;5083663;28;20503;-74
2022/07/05 11:16:37;;;;;;;3.87;2.33;;;25.90;38.00;;;;;;5085704;28;20419;-74
2022/07/05 11:19:09;;;;;;;6.43;2.57;;;26.20;38.30;;;;;;5087836;28;20438;-75
2022/07/05 11:21:37;;;;;;;5.70;2.20;;;26.70;39.10;;;;;;5064720;28;20459;-75
2022/07/05 11:24:28;;;;;;;3.70;2.30;;;27.00;37.90;;;;;;5068728;28;20436;-74
2022/07/05 11:26:58;;;;;;;4.03;1.97;;;26.50;38.20;;;;;;5089059;28;20435;-75
2022/07/05 11:29:42;;;;;;;6.03;2.70;;;26.90;38.60;;;;;;5087599;28;20415;-74
2022/07/05 11:32:10;;;;;;;3.10;2.07;;;26.00;39.60;;;;;;5092240;28;20467;-74
2022/07/05 11:34:37;;;;;;;2.93;2.10;;;26.00;40.20;;;;;;5096795;28;20978;-74
2022/07/05 11:37:33;;;;;;;3.90;1.97;;;25.50;40.70;;;;;;5082891;28;20452;-74
2022/07/05 11:40:05;;;;;;;2.50;2.10;;;25.80;40.20;;;;;;5081325;28;21740;-74
2022/07/05 11:42:33;;;;;;;2.20;2.10;;;26.40;39.20;;;;;;5087652;28;20452;-74
2022/07/05 11:44:59;;;;;;;3.00;2.20;;;26.40;38.70;;;;;;5078557;28;20429;-75
2022/07/05 11:47:26;;;;;;;2.83;1.80;;;26.20;39.90;;;;;;5065485;28;20432;-73
2022/07/05 11:49:58;;;;;;;5.20;2.00;;;26.50;40.70;;;;;;5080234;28;20428;-73
2022/07/05 11:52:29;;;;;;;3.90;2.87;;;26.90;38.60;;;;;;5087676;28;20480;-74
2022/07/05 11:54:56;;;;;;;2.30;2.00;;;27.00;39.10;;;;;;5084703;28;20455;-74
2022/07/05 11:57:23;;;;;;;2.83;1.97;;;26.80;39.40;;;;;;5083784;28;20426;-73
2022/07/05 11:59:49;;;;;;;7.10;2.83;;;27.20;38.60;;;;;;5079983;28;20428;-73
2022/07/05 12:02:15;;;;;;;4.53;2.40;;;27.60;38.40;;;;;;5080708;28;20481;-75
2022/07/05 12:04:53;;;;;;;2.77;2.10;;;27.40;37.50;;;;;;5084245;28;21097;-74
2022/07/05 12:07:29;;;;;;;3.93;2.23;;;26.80;38.70;;;;;;5077012;28;20414;-74
2022/07/05 12:12:43;;;;;;;4.77;2.60;;;27.10;38.30;;;;;;5076921;28;20873;-73
2022/07/05 12:15:16;;;;;;;4.40;2.43;;;27.60;37.50;;;;;;5083160;28;20632;-74
2022/07/05 12:17:44;;;;;;;2.97;2.13;;;27.70;37.20;;;;;;5084070;28;20417;-74
2022/07/05 12:20:12;;;;;;;5.00;1.90;;;28.30;36.70;;;;;;5093543;28;20421;-72
2022/07/05 12:22:40;;;;;;;8.40;2.43;;;27.90;36.40;;;;;;5091702;28;20469;-72
2022/07/05 12:25:09;;;;;;;3.90;2.30;;;27.60;37.60;;;;;;5087478;28;20418;-73
2022/07/05 12:27:37;;;;;;;5.57;2.37;;;27.20;38.30;;;;;;5085370;28;20927;-73
2022/07/05 12:30:04;;;;;;;4.23;2.27;;;26.40;40.40;;;;;;5082775;28;20425;-73
2022/07/05 12:32:30;;;;;;;4.97;2.60;;;27.00;40.00;;;;;;5078349;28;21070;-73
2022/07/05 12:34:57;;;;;;;3.50;2.30;;;27.30;38.70;;;;;;5085282;28;20915;-74
2022/07/05 12:37:24;;;;;;;4.37;2.53;;;27.60;39.60;;;;;;5062894;28;20421;-73
2022/07/05 12:40:01;;;;;;;3.27;2.57;;;28.20;38.20;;;;;;5086674;28;20424;-73
2022/07/05 12:42:38;;;;;;;6.83;2.80;;;28.20;38.00;;;;;;5084333;28;20540;-73
2022/07/05 12:45:15;;;;;;;6.60;2.33;;;28.80;36.60;;;;;;5077598;28;20938;-73
2022/07/05 12:47:53;;;;;;;4.50;2.87;;;28.90;36.30;;;;;;5105479;28;20397;-74
2022/07/05 12:50:28;;;;;;;3.60;2.37;;;28.90;36.60;;;;;;5094479;28;20431;-72
2022/07/05 12:58:48;;;;;;;2.70;2.10;;;26.10;41.40;;;;;;5080755;28;20776;-72
2022/07/05 13:01:20;;;;;;;3.10;2.17;;;26.30;41.20;;;;;;5083655;28;20898;-73
2022/07/05 13:04:13;;;;;;;2.93;2.73;;;26.80;40.40;;;;;;5081895;28;20441;-72